sensor_id;sensor_type;location;lat;lon;timestamp;pressure;altitude;pressure_sealevel;temperature;humidity
71643;BME280;59438;45.014;39.006;2023-02-22T00:00:26;100319.69;;;6.02;75.66
71643;BME280;59438;45.014;39.006;2023-02-22T00:02:56;100348.81;;;6.20;76.33
71643;BME280;59438;45.014;39.006;2023-02-22T00:05:22;100356.53;;;6.24;75.93
71643;BME280;59438;45.014;39.006;2023-02-22T00:07:50;100374.78;;;6.24;75.67
71643;BME280;59438;45.014;39.006;2023-02-22T00:10:17;100360.00;;;6.23;75.93
71643;BME280;59438;45.014;39.006;2023-02-22T00:12:43;100344.66;;;6.11;76.07
71643;BME280;59438;45.014;39.006;2023-02-22T00:15:10;100367.00;;;6.23;75.76
71643;BME280;59438;45.014;39.006;2023-02-22T00:17:36;100358.44;;;6.18;74.92
71643;BME280;59438;45.014;39.006;2023-02-22T00:20:03;100375.72;;;6.22;75.86
71643;BME280;59438;45.014;39.006;2023-02-22T00:22:29;100365.38;;;6.17;75.44
71643;BME280;59438;45.014;39.006;2023-02-22T00:24:57;100355.06;;;6.13;75.34
71643;BME280;59438;45.014;39.006;2023-02-22T00:27:24;100374.94;;;6.18;75.49
71643;BME280;59438;45.014;39.006;2023-02-22T00:29:50;100373.28;;;6.16;75.51
71643;BME280;59438;45.014;39.006;2023-02-22T00:32:16;100363.03;;;6.07;75.39
71643;BME280;59438;45.014;39.006;2023-02-22T00:34:43;100342.41;;;5.97;74.85
71643;BME280;59438;45.014;39.006;2023-02-22T00:37:09;100357.03;;;6.03;74.32
71643;BME280;59438;45.014;39.006;2023-02-22T00:39:36;100364.81;;;6.06;74.31
71643;BME280;59438;45.014;39.006;2023-02-22T00:42:04;100352.03;;;5.95;73.81
71643;BME280;59438;45.014;39.006;2023-02-22T00:44:30;100360.66;;;5.97;74.64
71643;BME280;59438;45.014;39.006;2023-02-22T00:46:56;100379.75;;;5.98;74.35
71643;BME280;59438;45.014;39.006;2023-02-22T00:49:23;100378.09;;;5.94;73.90
71643;BME280;59438;45.014;39.006;2023-02-22T00:51:49;100377.31;;;5.89;74.37
71643;BME280;59438;45.014;39.006;2023-02-22T00:54:15;100384.28;;;5.88;74.17
71643;BME280;59438;45.014;39.006;2023-02-22T00:56:42;100391.28;;;5.86;74.57
71643;BME280;59438;45.014;39.006;2023-02-22T00:59:10;100383.56;;;5.83;74.19
71643;BME280;59438;45.014;39.006;2023-02-22T01:01:36;100382.78;;;5.78;74.42
71643;BME280;59438;45.014;39.006;2023-02-22T01:04:03;100384.59;;;5.74;75.04
71643;BME280;59438;45.014;39.006;2023-02-22T01:06:29;100389.13;;;5.66;74.52
71643;BME280;59438;45.014;39.006;2023-02-22T01:08:56;100381.53;;;5.55;74.75
71643;BME280;59438;45.014;39.006;2023-02-22T01:11:22;100366.97;;;5.47;74.23
71643;BME280;59438;45.014;39.006;2023-02-22T01:13:48;100397.16;;;5.57;74.46
71643;BME280;59438;45.014;39.006;2023-02-22T01:16:16;100392.91;;;5.53;74.28
71643;BME280;59438;45.014;39.006;2023-02-22T01:18:43;100390.44;;;5.45;75.33
71643;BME280;59438;45.014;39.006;2023-02-22T01:21:09;100403.38;;;5.50;74.45
71643;BME280;59438;45.014;39.006;2023-02-22T01:23:36;100396.63;;;5.39;75.16
71643;BME280;59438;45.014;39.006;2023-02-22T01:26:02;100397.50;;;5.40;74.83
71643;BME280;59438;45.014;39.006;2023-02-22T01:28:29;100409.53;;;5.45;74.62
71643;BME280;59438;45.014;39.006;2023-02-22T01:30:55;100412.22;;;5.41;74.91
71643;BME280;59438;45.014;39.006;2023-02-22T01:33:23;100418.34;;;5.40;74.65
71643;BME280;59438;45.014;39.006;2023-02-22T01:35:50;100424.41;;;5.40;75.23
71643;BME280;59438;45.014;39.006;2023-02-22T01:38:16;100427.88;;;5.39;74.62
71643;BME280;59438;45.014;39.006;2023-02-22T01:40:47;100420.19;;;5.33;74.72
71643;BME280;59438;45.014;39.006;2023-02-22T01:43:16;100427.97;;;5.36;74.86
71643;BME280;59438;45.014;39.006;2023-02-22T01:45:48;100416.00;;;5.26;75.48
71643;BME280;59438;45.014;39.006;2023-02-22T01:48:19;100426.34;;;5.31;74.57
71643;BME280;59438;45.014;39.006;2023-02-22T01:50:52;100404.16;;;5.11;74.70
71643;BME280;59438;45.014;39.006;2023-02-22T01:53:22;100381.06;;;4.94;75.46
71643;BME280;59438;45.014;39.006;2023-02-22T01:55:49;100430.81;;;5.24;75.14
71643;BME280;59438;45.014;39.006;2023-02-22T01:58:18;100407.75;;;5.04;75.55
71643;BME280;59438;45.014;39.006;2023-02-22T02:00:45;100441.22;;;5.24;75.33
71643;BME280;59438;45.014;39.006;2023-02-22T02:03:16;100443.84;;;5.22;75.00
71643;BME280;59438;45.014;39.006;2023-02-22T02:05:44;100437.78;;;5.22;75.30
71643;BME280;59438;45.014;39.006;2023-02-22T02:08:20;100442.16;;;5.21;75.15
71643;BME280;59438;45.014;39.006;2023-02-22T02:10:48;100432.78;;;5.13;75.27
71643;BME280;59438;45.014;39.006;2023-02-22T02:13:15;100443.06;;;5.19;75.29
71643;BME280;59438;45.014;39.006;2023-02-22T02:15:41;100445.69;;;5.17;75.51
71643;BME280;59438;45.014;39.006;2023-02-22T02:18:09;100444.03;;;5.15;74.79
71643;BME280;59438;45.014;39.006;2023-02-22T02:20:43;100435.50;;;5.07;75.16
71643;BME280;59438;45.014;39.006;2023-02-22T02:23:33;100442.38;;;5.09;74.95
71643;BME280;59438;45.014;39.006;2023-02-22T02:26:22;100438.13;;;5.03;75.24
71643;BME280;59438;45.014;39.006;2023-02-22T02:32:19;100445.06;;;5.04;74.55
71643;BME280;59438;45.014;39.006;2023-02-22T02:34:51;100444.28;;;5.01;74.86
71643;BME280;59438;45.014;39.006;2023-02-22T02:37:24;100436.47;;;4.99;75.26
71643;BME280;59438;45.014;39.006;2023-02-22T02:39:59;100448.56;;;5.02;75.32
71643;BME280;59438;45.014;39.006;2023-02-22T02:42:32;100453.84;;;4.99;74.60
71643;BME280;59438;45.014;39.006;2023-02-22T02:45:06;100451.28;;;4.96;74.61
71643;BME280;59438;45.014;39.006;2023-02-22T02:47:37;100462.50;;;5.01;74.35
71643;BME280;59438;45.014;39.006;2023-02-22T02:50:10;100459.06;;;4.97;74.43
71643;BME280;59438;45.014;39.006;2023-02-22T02:52:37;100466.72;;;5.07;74.85
71643;BME280;59438;45.014;39.006;2023-02-22T02:55:06;100465.91;;;5.03;74.43
71643;BME280;59438;45.014;39.006;2023-02-22T02:57:33;100461.63;;;5.00;74.46
71643;BME280;59438;45.014;39.006;2023-02-22T02:59:59;100460.03;;;4.92;75.00
71643;BME280;59438;45.014;39.006;2023-02-22T03:02:40;100464.34;;;4.94;73.91
71643;BME280;59438;45.014;39.006;2023-02-22T03:05:24;100483.25;;;5.04;73.95
71643;BME280;59438;45.014;39.006;2023-02-22T03:08:00;100485.84;;;5.04;73.91
71643;BME280;59438;45.014;39.006;2023-02-22T03:10:51;100481.53;;;5.04;74.14
71643;BME280;59438;45.014;39.006;2023-02-22T03:13:29;100497.91;;;5.10;73.38
71643;BME280;59438;45.014;39.006;2023-02-22T03:16:07;100480.63;;;5.05;73.55
71643;BME280;59438;45.014;39.006;2023-02-22T03:18:46;100472.81;;;5.05;73.15
71643;BME280;59438;45.014;39.006;2023-02-22T03:21:21;100487.28;;;5.20;73.74
71643;BME280;59438;45.014;39.006;2023-02-22T03:23:58;100482.25;;;5.11;73.22
71643;BME280;59438;45.014;39.006;2023-02-22T03:26:40;100493.38;;;5.21;72.57
71643;BME280;59438;45.014;39.006;2023-02-22T03:29:10;100482.19;;;5.14;73.51
71643;BME280;59438;45.014;39.006;2023-02-22T03:31:41;100497.69;;;5.22;73.32
71643;BME280;59438;45.014;39.006;2023-02-22T03:34:14;100474.47;;;5.10;72.50
71643;BME280;59438;45.014;39.006;2023-02-22T03:36:44;100491.66;;;5.20;72.86
71643;BME280;59438;45.014;39.006;2023-02-22T03:39:14;100501.13;;;5.22;73.28
71643;BME280;59438;45.014;39.006;2023-02-22T03:41:46;100502.03;;;5.23;73.03
71643;BME280;59438;45.014;39.006;2023-02-22T03:44:16;100514.16;;;5.22;72.54
71643;BME280;59438;45.014;39.006;2023-02-22T03:46:45;100513.31;;;5.22;73.40
71643;BME280;59438;45.014;39.006;2023-02-22T03:49:19;100483.22;;;5.05;73.03
71643;BME280;59438;45.014;39.006;2023-02-22T03:51:50;100521.19;;;5.19;72.89
71643;BME280;59438;45.014;39.006;2023-02-22T03:54:17;100503.09;;;5.11;73.61
71643;BME280;59438;45.014;39.006;2023-02-22T03:56:48;100514.25;;;5.18;73.24
71643;BME280;59438;45.014;39.006;2023-02-22T03:59:15;100528.16;;;5.17;73.37
71643;BME280;59438;45.014;39.006;2023-02-22T04:01:42;100506.75;;;4.99;73.03
71643;BME280;59438;45.014;39.006;2023-02-22T04:04:08;100529.97;;;5.12;73.04
71643;BME280;59438;45.014;39.006;2023-02-22T04:06:36;100538.72;;;5.08;72.78
71643;BME280;59438;45.014;39.006;2023-02-22T04:09:03;100535.31;;;5.04;73.28
71643;BME280;59438;45.014;39.006;2023-02-22T04:11:29;100537.97;;;5.01;72.84
71643;BME280;59438;45.014;39.006;2023-02-22T04:13:56;100539.75;;;4.99;72.97
71643;BME280;59438;45.014;39.006;2023-02-22T04:16:22;100545.88;;;4.96;73.00
71643;BME280;59438;45.014;39.006;2023-02-22T04:18:48;100531.25;;;4.88;73.06
71643;BME280;59438;45.014;39.006;2023-02-22T04:21:14;100547.66;;;4.94;73.33
71643;BME280;59438;45.014;39.006;2023-02-22T04:23:42;100540.69;;;4.93;73.09
71643;BME280;59438;45.014;39.006;2023-02-22T04:26:09;100549.38;;;4.94;73.30
71643;BME280;59438;45.014;39.006;2023-02-22T04:28:35;100540.78;;;4.89;72.83
71643;BME280;59438;45.014;39.006;2023-02-22T04:31:01;100563.25;;;4.94;73.11
71643;BME280;59438;45.014;39.006;2023-02-22T04:33:28;100559.75;;;4.95;72.68
71643;BME280;59438;45.014;39.006;2023-02-22T04:35:54;100536.53;;;4.83;72.61
71643;BME280;59438;45.014;39.006;2023-02-22T04:38:20;100551.97;;;4.94;72.78
71643;BME280;59438;45.014;39.006;2023-02-22T04:40:48;100557.16;;;4.95;72.88
71643;BME280;59438;45.014;39.006;2023-02-22T04:43:15;100574.50;;;4.96;73.09
71643;BME280;59438;45.014;39.006;2023-02-22T04:45:41;100556.41;;;4.87;72.99
71643;BME280;59438;45.014;39.006;2023-02-22T04:48:07;100571.00;;;4.97;73.03
71643;BME280;59438;45.014;39.006;2023-02-22T04:50:34;100549.59;;;4.80;73.19
71643;BME280;59438;45.014;39.006;2023-02-22T04:53:01;100571.84;;;4.99;73.17
71643;BME280;59438;45.014;39.006;2023-02-22T04:55:28;100570.06;;;5.01;73.68
71643;BME280;59438;45.014;39.006;2023-02-22T04:57:56;100570.88;;;5.05;73.21
71643;BME280;59438;45.014;39.006;2023-02-22T05:00:22;100579.53;;;5.09;72.80
71643;BME280;59438;45.014;39.006;2023-02-22T05:02:49;100580.34;;;5.11;73.25
71643;BME280;59438;45.014;39.006;2023-02-22T05:05:20;100564.03;;;4.99;73.08
71643;BME280;59438;45.014;39.006;2023-02-22T05:07:46;100596.66;;;5.20;72.86
71643;BME280;59438;45.014;39.006;2023-02-22T05:10:16;100596.63;;;5.23;73.17
71643;BME280;59438;45.014;39.006;2023-02-22T05:12:42;100607.63;;;5.39;73.02
71643;BME280;59438;45.014;39.006;2023-02-22T05:15:15;100605.75;;;5.48;72.08
71643;BME280;59438;45.014;39.006;2023-02-22T05:17:42;100591.88;;;5.45;72.38
71643;BME280;59438;45.014;39.006;2023-02-22T05:20:15;100597.69;;;5.60;72.07
71643;BME280;59438;45.014;39.006;2023-02-22T05:22:42;100607.88;;;5.74;72.33
71643;BME280;59438;45.014;39.006;2023-02-22T05:25:09;100624.19;;;5.85;72.63
71643;BME280;59438;45.014;39.006;2023-02-22T05:27:35;100628.38;;;5.92;72.38
71643;BME280;59438;45.014;39.006;2023-02-22T05:30:02;100634.44;;;5.97;72.18
71643;BME280;59438;45.014;39.006;2023-02-22T05:32:29;100641.31;;;6.00;71.75
71643;BME280;59438;45.014;39.006;2023-02-22T05:34:56;100648.13;;;6.07;71.18
71643;BME280;59438;45.014;39.006;2023-02-22T05:37:22;100638.63;;;6.04;70.93
71643;BME280;59438;45.014;39.006;2023-02-22T05:39:48;100660.16;;;6.14;71.82
71643;BME280;59438;45.014;39.006;2023-02-22T05:42:15;100657.53;;;6.16;71.15
71643;BME280;59438;45.014;39.006;2023-02-22T05:44:41;100657.59;;;6.11;70.74
71643;BME280;59438;45.014;39.006;2023-02-22T05:47:07;100655.13;;;6.05;71.01
71643;BME280;59438;45.014;39.006;2023-02-22T05:49:35;100680.91;;;6.22;70.83
71643;BME280;59438;45.014;39.006;2023-02-22T05:52:02;100679.13;;;6.24;71.13
71643;BME280;59438;45.014;39.006;2023-02-22T05:54:28;100682.47;;;6.29;71.57
71643;BME280;59438;45.014;39.006;2023-02-22T05:56:54;100692.81;;;6.34;71.51
71643;BME280;59438;45.014;39.006;2023-02-22T05:59:21;100673.91;;;6.24;71.08
71643;BME280;59438;45.014;39.006;2023-02-22T06:01:47;100687.66;;;6.31;71.25
71643;BME280;59438;45.014;39.006;2023-02-22T06:04:13;100677.34;;;6.26;70.95
71643;BME280;59438;45.014;39.006;2023-02-22T06:06:41;100701.44;;;6.39;69.67
71643;BME280;59438;45.014;39.006;2023-02-22T06:09:08;100707.50;;;6.39;70.18
71643;BME280;59438;45.014;39.006;2023-02-22T06:11:34;100694.66;;;6.29;70.12
71643;BME280;59438;45.014;39.006;2023-02-22T06:14:00;100717.84;;;6.44;70.57
71643;BME280;59438;45.014;39.006;2023-02-22T06:16:27;100723.84;;;6.48;71.26
71643;BME280;59438;45.014;39.006;2023-02-22T06:18:53;100727.28;;;6.51;71.12
71643;BME280;59438;45.014;39.006;2023-02-22T06:21:19;100730.72;;;6.53;70.32
71643;BME280;59438;45.014;39.006;2023-02-22T06:23:47;100748.06;;;6.54;71.18
71643;BME280;59438;45.014;39.006;2023-02-22T06:26:15;100731.50;;;6.57;70.41
71643;BME280;59438;45.014;39.006;2023-02-22T06:28:41;100737.75;;;6.48;70.17
71643;BME280;59438;45.014;39.006;2023-02-22T06:31:08;100748.91;;;6.56;70.61
71643;BME280;59438;45.014;39.006;2023-02-22T06:33:34;100756.72;;;6.56;70.37
71643;BME280;59438;45.014;39.006;2023-02-22T06:36:01;100761.34;;;6.43;70.15
71643;BME280;59438;45.014;39.006;2023-02-22T06:38:27;100754.19;;;6.53;70.64
71643;BME280;59438;45.014;39.006;2023-02-22T06:40:55;100759.47;;;6.50;69.39
71643;BME280;59438;45.014;39.006;2023-02-22T06:43:21;100762.16;;;6.47;69.93
71643;BME280;59438;45.014;39.006;2023-02-22T06:45:48;100777.00;;;6.43;69.72
71643;BME280;59438;45.014;39.006;2023-02-22T06:48:14;100767.47;;;6.41;70.14
71643;BME280;59438;45.014;39.006;2023-02-22T06:50:40;100777.00;;;6.42;69.94
71643;BME280;59438;45.014;39.006;2023-02-22T06:53:07;100776.19;;;6.40;69.59
71643;BME280;59438;45.014;39.006;2023-02-22T06:55:34;100776.25;;;6.37;69.37
71643;BME280;59438;45.014;39.006;2023-02-22T06:58:03;100778.13;;;6.30;69.75
71643;BME280;59438;45.014;39.006;2023-02-22T07:00:30;100786.69;;;6.37;69.89
71643;BME280;59438;45.014;39.006;2023-02-22T07:02:57;100786.69;;;6.37;69.05
71643;BME280;59438;45.014;39.006;2023-02-22T07:05:25;100755.81;;;6.14;69.85
71643;BME280;59438;45.014;39.006;2023-02-22T07:07:53;100790.34;;;6.27;68.69
71643;BME280;59438;45.014;39.006;2023-02-22T07:10:22;100774.13;;;6.09;69.08
71643;BME280;59438;45.014;39.006;2023-02-22T07:12:49;100814.66;;;6.29;69.07
71643;BME280;59438;45.014;39.006;2023-02-22T07:15:18;100807.81;;;6.23;69.58
71643;BME280;59438;45.014;39.006;2023-02-22T07:17:45;100809.53;;;6.24;69.36
71643;BME280;59438;45.014;39.006;2023-02-22T07:20:11;100815.59;;;6.24;69.16
71643;BME280;59438;45.014;39.006;2023-02-22T07:22:38;100822.63;;;6.21;69.75
71643;BME280;59438;45.014;39.006;2023-02-22T07:25:06;100832.94;;;6.27;69.74
71643;BME280;59438;45.014;39.006;2023-02-22T07:27:35;100832.09;;;6.27;69.35
71643;BME280;59438;45.014;39.006;2023-02-22T07:30:02;100839.91;;;6.27;69.22
71643;BME280;59438;45.014;39.006;2023-02-22T07:32:29;100830.34;;;6.25;69.03
71643;BME280;59438;45.014;39.006;2023-02-22T07:34:56;100835.56;;;6.25;69.95
71643;BME280;59438;45.014;39.006;2023-02-22T07:37:22;100845.13;;;6.28;69.43
71643;BME280;59438;45.014;39.006;2023-02-22T07:39:48;100815.00;;;6.09;69.35
71643;BME280;59438;45.014;39.006;2023-02-22T07:42:15;100848.66;;;6.24;69.04
71643;BME280;59438;45.014;39.006;2023-02-22T07:44:41;100833.97;;;6.18;69.53
71643;BME280;59438;45.014;39.006;2023-02-22T07:47:08;100803.03;;;5.97;69.60
71643;BME280;59438;45.014;39.006;2023-02-22T07:49:35;100854.75;;;6.23;69.28
71643;BME280;59438;45.014;39.006;2023-02-22T07:52:02;100850.34;;;6.27;70.15
71643;BME280;59438;45.014;39.006;2023-02-22T07:54:28;100847.84;;;6.20;69.34
71643;BME280;59438;45.014;39.006;2023-02-22T07:56:54;100857.28;;;6.28;68.96
71643;BME280;59438;45.014;39.006;2023-02-22T07:59:21;100862.53;;;6.26;69.53
71643;BME280;59438;45.014;39.006;2023-02-22T08:01:48;100826.44;;;6.01;69.16
71643;BME280;59438;45.014;39.006;2023-02-22T08:04:15;100869.53;;;6.24;69.49
71643;BME280;59438;45.014;39.006;2023-02-22T08:06:42;100860.06;;;6.18;69.40
71643;BME280;59438;45.014;39.006;2023-02-22T08:09:09;100879.16;;;6.20;69.24
71643;BME280;59438;45.014;39.006;2023-02-22T08:11:35;100862.00;;;6.05;69.90
71643;BME280;59438;45.014;39.006;2023-02-22T08:14:01;100879.19;;;6.17;70.20
71643;BME280;59438;45.014;39.006;2023-02-22T08:16:28;100865.28;;;6.17;69.45
71643;BME280;59438;45.014;39.006;2023-02-22T08:18:54;100889.56;;;6.22;69.16
71643;BME280;59438;45.014;39.006;2023-02-22T08:21:20;100870.41;;;6.21;69.13
71643;BME280;59438;45.014;39.006;2023-02-22T08:23:51;100887.69;;;6.30;69.82
71643;BME280;59438;45.014;39.006;2023-02-22T08:26:17;100877.22;;;6.32;69.31
71643;BME280;59438;45.014;39.006;2023-02-22T08:28:44;100866.78;;;6.32;69.85
71643;BME280;59438;45.014;39.006;2023-02-22T08:31:10;100880.44;;;6.46;69.07
71643;BME280;59438;45.014;39.006;2023-02-22T08:33:37;100883.84;;;6.53;69.05
71643;BME280;59438;45.014;39.006;2023-02-22T08:36:04;100847.69;;;6.30;69.38
71643;BME280;59438;45.014;39.006;2023-02-22T08:38:30;100904.63;;;6.57;69.62
71643;BME280;59438;45.014;39.006;2023-02-22T08:40:58;100891.56;;;6.57;68.79
71643;BME280;59438;45.014;39.006;2023-02-22T08:43:25;100896.72;;;6.62;68.88
71643;BME280;59438;45.014;39.006;2023-02-22T08:45:51;100895.75;;;6.66;69.67
71643;BME280;59438;45.014;39.006;2023-02-22T08:48:18;100905.25;;;6.72;69.12
71643;BME280;59438;45.014;39.006;2023-02-22T08:50:45;100873.31;;;6.57;68.63
71643;BME280;59438;45.014;39.006;2023-02-22T08:53:13;100906.06;;;6.74;68.75
71643;BME280;59438;45.014;39.006;2023-02-22T08:55:53;100870.81;;;6.51;68.73
71643;BME280;59438;45.014;39.006;2023-02-22T08:58:21;100893.19;;;6.64;68.22
71643;BME280;59438;45.014;39.006;2023-02-22T09:00:48;100873.41;;;6.53;68.89
71643;BME280;59438;45.014;39.006;2023-02-22T09:03:14;100893.88;;;6.74;68.61
71643;BME280;59438;45.014;39.006;2023-02-22T09:05:41;100873.44;;;6.50;68.35
71643;BME280;59438;45.014;39.006;2023-02-22T09:08:07;100872.38;;;6.61;68.36
71643;BME280;59438;45.014;39.006;2023-02-22T09:10:34;100904.38;;;6.71;67.92
71643;BME280;59438;45.014;39.006;2023-02-22T09:13:01;100909.63;;;6.70;68.62
71643;BME280;59438;45.014;39.006;2023-02-22T09:15:30;100884.59;;;6.59;68.61
71643;BME280;59438;45.014;39.006;2023-02-22T09:17:56;100906.63;;;6.90;68.99
71643;BME280;59438;45.014;39.006;2023-02-22T09:20:23;100910.78;;;7.01;68.30
71643;BME280;59438;45.014;39.006;2023-02-22T09:22:50;100909.81;;;7.05;67.50
71643;BME280;59438;45.014;39.006;2023-02-22T09:25:17;100902.78;;;7.11;68.07
71643;BME280;59438;45.014;39.006;2023-02-22T09:27:45;100887.97;;;7.10;66.66
71643;BME280;59438;45.014;39.006;2023-02-22T09:30:17;100892.13;;;7.20;66.60
71643;BME280;59438;45.014;39.006;2023-02-22T09:32:45;100911.22;;;7.25;67.16
71643;BME280;59438;45.014;39.006;2023-02-22T09:35:14;100892.34;;;7.11;66.45
71643;BME280;59438;45.014;39.006;2023-02-22T09:37:40;100909.66;;;7.15;67.40
71643;BME280;59438;45.014;39.006;2023-02-22T09:40:08;100907.94;;;7.12;66.80
71643;BME280;59438;45.014;39.006;2023-02-22T09:42:40;100896.75;;;7.07;66.02
71643;BME280;59438;45.014;39.006;2023-02-22T09:45:13;100898.44;;;7.10;65.91
71643;BME280;59438;45.014;39.006;2023-02-22T09:47:47;100877.06;;;6.89;66.88
71643;BME280;59438;45.014;39.006;2023-02-22T09:50:14;100892.28;;;7.12;67.21
71643;BME280;59438;45.014;39.006;2023-02-22T09:52:50;100897.56;;;7.11;66.39
71643;BME280;59438;45.014;39.006;2023-02-22T09:55:25;100843.22;;;6.83;66.73
71643;BME280;59438;45.014;39.006;2023-02-22T09:57:55;100890.31;;;7.23;66.52
71643;BME280;59438;45.014;39.006;2023-02-22T10:00:26;100827.28;;;6.98;66.38
71643;BME280;59438;45.014;39.006;2023-02-22T10:03:05;100890.06;;;7.36;65.47
71643;BME280;59438;45.014;39.006;2023-02-22T10:05:38;100890.09;;;7.34;65.66
71643;BME280;59438;45.014;39.006;2023-02-22T10:08:11;100881.47;;;7.31;65.07
71643;BME280;59438;45.014;39.006;2023-02-22T10:10:40;100856.53;;;7.14;65.91
71643;BME280;59438;45.014;39.006;2023-02-22T10:13:14;100897.13;;;7.32;64.72
71643;BME280;59438;45.014;39.006;2023-02-22T10:15:50;100840.25;;;7.03;64.86
71643;BME280;59438;45.014;39.006;2023-02-22T10:18:45;100885.81;;;7.32;65.14
71643;BME280;59438;45.014;39.006;2023-02-22T10:21:22;100903.28;;;7.30;64.49
71643;BME280;59438;45.014;39.006;2023-02-22T10:23:59;100896.28;;;7.30;64.05
71643;BME280;59438;45.014;39.006;2023-02-22T10:26:34;100847.47;;;6.89;64.30
71643;BME280;59438;45.014;39.006;2023-02-22T10:29:05;100858.53;;;7.03;64.93
71643;BME280;59438;45.014;39.006;2023-02-22T10:31:38;100894.66;;;7.24;63.98
71643;BME280;59438;45.014;39.006;2023-02-22T10:34:12;100906.84;;;7.24;63.90
71643;BME280;59438;45.014;39.006;2023-02-22T10:36:39;100913.88;;;7.22;65.05
71643;BME280;59438;45.014;39.006;2023-02-22T10:39:14;100918.34;;;7.17;64.45
71643;BME280;59438;45.014;39.006;2023-02-22T10:41:46;100909.81;;;7.05;65.12
71643;BME280;59438;45.014;39.006;2023-02-22T10:44:14;100924.69;;;7.02;65.23
71643;BME280;59438;45.014;39.006;2023-02-22T10:46:41;100923.91;;;6.98;64.75
71643;BME280;59438;45.014;39.006;2023-02-22T10:49:10;100897.31;;;6.76;64.36
71643;BME280;59438;45.014;39.006;2023-02-22T10:51:37;100937.09;;;6.92;65.64
71643;BME280;59438;45.014;39.006;2023-02-22T10:54:20;100923.19;;;6.90;63.51
71643;BME280;59438;45.014;39.006;2023-02-22T10:56:49;100936.16;;;6.95;64.54
71643;BME280;59438;45.014;39.006;2023-02-22T10:59:28;100934.41;;;6.95;63.62
71643;BME280;59438;45.014;39.006;2023-02-22T11:01:56;100947.53;;;6.91;65.31
71643;BME280;59438;45.014;39.006;2023-02-22T11:04:24;100933.03;;;6.76;64.23
71643;BME280;59438;45.014;39.006;2023-02-22T11:07:07;100945.97;;;6.82;64.09
71643;BME280;59438;45.014;39.006;2023-02-22T11:09:45;100947.88;;;6.71;63.79
71643;BME280;59438;45.014;39.006;2023-02-22T11:12:17;100948.00;;;6.64;64.37
71643;BME280;59438;45.014;39.006;2023-02-22T11:14:44;100942.84;;;6.61;65.30
71643;BME280;59438;45.014;39.006;2023-02-22T11:17:15;100957.75;;;6.53;64.46
71643;BME280;59438;45.014;39.006;2023-02-22T11:19:47;100956.03;;;6.52;64.12
71643;BME280;59438;45.014;39.006;2023-02-22T11:22:21;100938.84;;;6.40;62.82
71643;BME280;59438;45.014;39.006;2023-02-22T11:24:50;100866.59;;;5.86;64.45
71643;BME280;59438;45.014;39.006;2023-02-22T11:27:27;100961.22;;;6.54;63.59
71643;BME280;59438;45.014;39.006;2023-02-22T11:29:57;100857.75;;;5.98;64.52
71643;BME280;59438;45.014;39.006;2023-02-22T11:32:24;100957.88;;;6.45;65.17
71643;BME280;59438;45.014;39.006;2023-02-22T11:34:53;100970.75;;;6.56;64.58
71643;BME280;59438;45.014;39.006;2023-02-22T11:37:41;100975.13;;;6.54;64.44
71643;BME280;59438;45.014;39.006;2023-02-22T11:40:14;100934.69;;;6.25;64.11
71643;BME280;59438;45.014;39.006;2023-02-22T11:42:41;100974.50;;;6.40;64.44
71643;BME280;59438;45.014;39.006;2023-02-22T11:45:11;100968.50;;;6.35;64.31
71643;BME280;59438;45.014;39.006;2023-02-22T11:47:46;100960.84;;;6.24;63.77
71643;BME280;59438;45.014;39.006;2023-02-22T11:50:20;100987.69;;;6.29;63.65
71643;BME280;59438;45.014;39.006;2023-02-22T11:52:52;100941.97;;;6.05;64.19
71643;BME280;59438;45.014;39.006;2023-02-22T11:55:25;100992.09;;;6.25;63.43
71643;BME280;59438;45.014;39.006;2023-02-22T11:58:01;100949.03;;;5.97;63.86
71643;BME280;59438;45.014;39.006;2023-02-22T12:00:37;100985.16;;;6.24;64.37
71643;BME280;59438;45.014;39.006;2023-02-22T12:03:35;100962.81;;;6.08;64.21
71643;BME280;59438;45.014;39.006;2023-02-22T12:06:15;101006.78;;;6.34;63.92
71643;BME280;59438;45.014;39.006;2023-02-22T12:08:57;100988.63;;;6.25;63.53
71643;BME280;59438;45.014;39.006;2023-02-22T12:11:33;101000.63;;;6.37;63.58
71643;BME280;59438;45.014;39.006;2023-02-22T12:14:11;100990.94;;;6.45;63.71
71643;BME280;59438;45.014;39.006;2023-02-22T12:16:55;101015.88;;;6.63;63.56
71643;BME280;59438;45.014;39.006;2023-02-22T12:19:30;101022.66;;;6.75;62.88
71643;BME280;59438;45.014;39.006;2023-02-22T12:22:02;100982.88;;;6.59;63.75
71643;BME280;59438;45.014;39.006;2023-02-22T12:24:35;101006.88;;;6.82;62.70
71643;BME280;59438;45.014;39.006;2023-02-22T12:27:06;101024.13;;;6.91;63.36
71643;BME280;59438;45.014;39.006;2023-02-22T12:29:37;101020.59;;;6.94;62.93
71643;BME280;59438;45.014;39.006;2023-02-22T12:32:05;101021.28;;;7.05;63.85
71643;BME280;59438;45.014;39.006;2023-02-22T12:34:36;101024.03;;;6.97;62.08
71643;BME280;59438;45.014;39.006;2023-02-22T12:37:10;101004.19;;;6.87;62.45
71643;BME280;59438;45.014;39.006;2023-02-22T12:39:48;101000.06;;;6.74;61.98
71643;BME280;59438;45.014;39.006;2023-02-22T12:42:17;101024.09;;;6.94;62.73
71643;BME280;59438;45.014;39.006;2023-02-22T12:44:51;100982.09;;;6.55;62.59
71643;BME280;59438;45.014;39.006;2023-02-22T12:47:29;101032.22;;;6.76;62.04
71643;BME280;59438;45.014;39.006;2023-02-22T12:50:01;101035.78;;;6.72;63.25
71643;BME280;59438;45.014;39.006;2023-02-22T12:52:37;101053.03;;;6.80;62.71
71643;BME280;59438;45.014;39.006;2023-02-22T12:55:11;101056.56;;;6.78;61.63
71643;BME280;59438;45.014;39.006;2023-02-22T12:57:43;101048.88;;;6.67;62.44
71643;BME280;59438;45.014;39.006;2023-02-22T13:00:16;101052.41;;;6.64;61.52
71643;BME280;59438;45.014;39.006;2023-02-22T13:02:47;101055.94;;;6.62;62.04
71643;BME280;59438;45.014;39.006;2023-02-22T13:05:17;101052.50;;;6.57;62.59